createdAt,value
2024-02-17T00:00:38.808Z,0.00
2024-02-17T00:01:36.971Z,0.00
2024-02-17T00:02:36.947Z,0.00
2024-02-17T00:03:37.008Z,0.00
2024-02-17T00:04:36.904Z,0.00
2024-02-17T00:05:36.902Z,0.00
2024-02-17T00:06:36.930Z,0.00
2024-02-17T00:07:36.846Z,0.00
2024-02-17T00:08:36.872Z,0.00
2024-02-17T00:09:36.879Z,0.00
2024-02-17T00:10:36.858Z,0.00
2024-02-17T00:11:36.825Z,0.00
2024-02-17T00:12:36.847Z,0.00
2024-02-17T00:13:36.799Z,0.00
2024-02-17T00:14:37.200Z,0.00
2024-02-17T00:15:36.781Z,0.00
2024-02-17T00:16:37.156Z,0.00
2024-02-17T00:17:36.835Z,0.00
2024-02-17T00:18:36.932Z,0.00
2024-02-17T00:19:37.018Z,0.00
2024-02-17T00:20:36.775Z,0.00
2024-02-17T00:21:36.753Z,0.00
2024-02-17T00:22:36.674Z,0.00
2024-02-17T00:23:36.695Z,0.00
2024-02-17T00:24:36.774Z,0.00
2024-02-17T00:25:36.672Z,0.00
2024-02-17T00:26:36.629Z,0.00
2024-02-17T00:27:36.700Z,0.00
2024-02-17T00:28:36.613Z,0.00
2024-02-17T00:29:36.604Z,0.00
2024-02-17T00:30:36.624Z,0.00
2024-02-17T00:31:36.596Z,0.00
2024-02-17T00:32:36.608Z,0.00
2024-02-17T00:33:37.009Z,0.00
2024-02-17T00:34:36.587Z,0.00
2024-02-17T00:35:36.543Z,0.00
2024-02-17T00:36:36.602Z,0.00
2024-02-17T00:37:36.514Z,0.00
2024-02-17T00:38:36.655Z,0.00
2024-02-17T00:39:36.519Z,0.00
2024-02-17T00:40:36.491Z,0.00
2024-02-17T00:41:36.473Z,0.00
2024-02-17T00:42:36.537Z,0.00
2024-02-17T00:43:36.464Z,0.00
2024-02-17T00:44:36.447Z,0.00
2024-02-17T00:45:36.614Z,0.00
2024-02-17T00:46:36.457Z,0.00
2024-02-17T00:47:36.447Z,0.00
2024-02-17T00:48:37.530Z,0.00
2024-02-17T00:49:36.481Z,0.00
2024-02-17T00:50:36.378Z,0.00
2024-02-17T00:51:36.420Z,0.00
2024-02-17T00:52:36.430Z,0.00
2024-02-17T00:53:36.340Z,0.00
2024-02-17T00:54:36.354Z,0.00
2024-02-17T00:55:36.318Z,0.00
2024-02-17T00:56:36.323Z,0.00
2024-02-17T00:57:36.340Z,0.00
2024-02-17T00:58:36.309Z,0.00
2024-02-17T00:59:36.289Z,0.00
2024-02-17T01:00:36.703Z,0.00
2024-02-17T01:01:39.781Z,0.00
2024-02-17T01:02:36.235Z,0.00
2024-02-17T01:03:36.343Z,0.00
2024-02-17T01:04:36.216Z,0.00
2024-02-17T01:05:36.346Z,0.00
2024-02-17T01:06:36.446Z,0.00
2024-02-17T01:07:36.204Z,0.00
2024-02-17T01:08:36.175Z,0.00
2024-02-17T01:09:36.250Z,0.00
2024-02-17T01:10:37.355Z,0.00
2024-02-17T01:11:36.268Z,0.00
2024-02-17T01:12:36.157Z,0.00
2024-02-17T01:13:36.125Z,0.00
2024-02-17T01:14:36.116Z,0.00
2024-02-17T01:15:36.184Z,0.00
2024-02-17T01:16:36.118Z,0.00
2024-02-17T01:17:36.133Z,0.00
2024-02-17T01:18:37.173Z,0.00
2024-02-17T01:19:36.126Z,0.00
2024-02-17T01:20:36.065Z,0.00
2024-02-17T01:21:36.162Z,0.00
2024-02-17T01:22:36.042Z,0.00
2024-02-17T01:23:36.029Z,0.00
2024-02-17T01:24:36.047Z,0.00
2024-02-17T01:25:36.005Z,0.00
2024-02-17T01:26:36.027Z,0.00
2024-02-17T01:27:35.998Z,0.00
2024-02-17T01:28:36.919Z,0.00
2024-02-17T01:29:35.984Z,0.00
2024-02-17T01:30:35.986Z,0.00
2024-02-17T01:31:35.945Z,0.00
2024-02-17T01:32:35.952Z,0.00
2024-02-17T01:33:36.049Z,0.00
2024-02-17T01:34:35.981Z,0.00
2024-02-17T01:35:35.928Z,0.00
2024-02-17T01:36:35.905Z,0.00
2024-02-17T01:37:35.921Z,0.00
2024-02-17T01:38:36.817Z,0.00
2024-02-17T01:39:35.889Z,0.00
2024-02-17T01:40:35.843Z,0.00
2024-02-17T01:41:35.828Z,0.00
2024-02-17T01:42:35.800Z,0.00
2024-02-17T01:43:35.795Z,0.00
2024-02-17T01:44:35.777Z,0.00
2024-02-17T01:45:35.888Z,0.00
2024-02-17T01:46:35.775Z,0.00
2024-02-17T01:47:35.829Z,0.00
2024-02-17T01:48:35.857Z,0.00
2024-02-17T01:49:35.810Z,0.00
2024-02-17T01:50:35.723Z,0.00
2024-02-17T01:51:35.788Z,0.00
2024-02-17T01:52:39.256Z,0.00
2024-02-17T01:53:35.689Z,0.00
2024-02-17T01:54:35.705Z,0.00
2024-02-17T01:55:35.667Z,0.00
2024-02-17T01:56:35.762Z,0.00
2024-02-17T01:57:35.707Z,0.00
2024-02-17T01:58:35.680Z,0.00
2024-02-17T01:59:35.623Z,0.00
2024-02-17T02:00:35.939Z,0.00
2024-02-17T02:01:35.630Z,0.00
2024-02-17T02:02:35.587Z,0.00
2024-02-17T02:03:35.648Z,0.00
2024-02-17T02:04:35.696Z,0.00
2024-02-17T02:05:36.039Z,0.00
2024-02-17T02:06:35.634Z,0.00
2024-02-17T02:07:35.537Z,0.00
2024-02-17T02:08:35.508Z,0.00
2024-02-17T02:09:35.565Z,0.00
2024-02-17T02:10:35.536Z,0.00
2024-02-17T02:11:35.543Z,0.00
2024-02-17T02:12:35.589Z,0.00
2024-02-17T02:13:35.587Z,0.00
2024-02-17T02:14:35.465Z,0.00
2024-02-17T02:15:41.259Z,0.00
2024-02-17T02:16:36.517Z,0.00
2024-02-17T02:17:35.437Z,0.00
2024-02-17T02:18:35.623Z,0.00
2024-02-17T02:19:35.444Z,0.00
2024-02-17T02:20:35.544Z,0.00
2024-02-17T02:21:36.003Z,0.00
2024-02-17T02:22:35.358Z,0.00
2024-02-17T02:23:35.355Z,0.00
2024-02-17T02:24:35.409Z,0.00
2024-02-17T02:25:36.011Z,0.00
2024-02-17T02:26:35.321Z,0.00
2024-02-17T02:27:35.319Z,0.00
2024-02-17T02:28:35.355Z,0.00
2024-02-17T02:29:35.289Z,0.00
2024-02-17T02:30:35.401Z,0.00
2024-02-17T02:31:35.255Z,0.00
2024-02-17T02:32:35.314Z,0.00
2024-02-17T02:33:35.350Z,0.00
2024-02-17T02:34:35.890Z,0.00
2024-02-17T02:35:35.224Z,0.00
2024-02-17T02:36:35.313Z,0.00
2024-02-17T02:37:35.196Z,0.00
2024-02-17T02:38:35.188Z,0.00
2024-02-17T02:39:35.528Z,0.00
2024-02-17T02:40:36.148Z,0.00
2024-02-17T02:41:35.149Z,0.00
2024-02-17T02:42:35.217Z,0.00
2024-02-17T02:43:35.158Z,0.00
2024-02-17T02:44:35.152Z,0.00
2024-02-17T02:45:35.295Z,0.00
2024-02-17T02:46:35.094Z,0.00
2024-02-17T02:47:35.143Z,0.00
2024-02-17T02:48:35.172Z,0.00
2024-02-17T02:49:35.163Z,0.00
2024-02-17T02:50:35.082Z,0.00
2024-02-17T02:51:35.147Z,0.00
2024-02-17T02:52:35.028Z,0.00
2024-02-17T02:53:35.014Z,0.00
2024-02-17T02:54:35.271Z,0.00
2024-02-17T02:55:35.023Z,0.00
2024-02-17T02:56:34.996Z,0.00
2024-02-17T02:57:35.686Z,0.00
2024-02-17T02:58:34.996Z,0.00
2024-02-17T02:59:34.981Z,0.00
2024-02-17T03:00:35.204Z,0.00
2024-02-17T03:01:35.038Z,0.00
2024-02-17T03:02:34.932Z,0.00
2024-02-17T03:03:34.975Z,0.00
2024-02-17T03:04:35.020Z,0.00
2024-02-17T03:05:34.948Z,0.00
2024-02-17T03:06:34.999Z,0.00
2024-02-17T03:07:34.930Z,0.00
2024-02-17T03:08:34.879Z,0.00
2024-02-17T03:09:34.878Z,0.00
2024-02-17T03:10:34.907Z,0.00
2024-02-17T03:11:34.930Z,0.00
2024-02-17T03:12:34.870Z,0.00
2024-02-17T03:13:34.932Z,0.00
2024-02-17T03:14:34.856Z,0.00
2024-02-17T03:15:34.856Z,0.00
2024-02-17T03:16:34.797Z,0.00
2024-02-17T03:17:34.777Z,0.00
2024-02-17T03:18:34.819Z,0.00
2024-02-17T03:19:34.807Z,0.00
2024-02-17T03:20:34.758Z,0.00
2024-02-17T03:21:37.428Z,0.00
2024-02-17T03:22:34.715Z,0.00
2024-02-17T03:23:34.684Z,0.00
2024-02-17T03:24:35.156Z,0.00
2024-02-17T03:25:34.682Z,0.00
2024-02-17T03:26:34.684Z,0.00
2024-02-17T03:27:36.272Z,0.00
2024-02-17T03:28:34.868Z,0.00
2024-02-17T03:29:36.168Z,0.00
2024-02-17T03:30:34.722Z,0.00
2024-02-17T03:31:35.373Z,0.00
2024-02-17T03:32:34.669Z,0.00
2024-02-17T03:33:36.649Z,0.00
2024-02-17T03:34:34.853Z,0.00
2024-02-17T03:35:35.323Z,0.00
2024-02-17T03:36:34.743Z,0.00
2024-02-17T03:37:34.564Z,0.00
2024-02-17T03:38:34.537Z,0.00
2024-02-17T03:39:34.712Z,0.00
2024-02-17T03:40:36.497Z,0.00
2024-02-17T03:41:35.817Z,0.00
2024-02-17T03:42:35.983Z,0.00
2024-02-17T03:43:34.552Z,0.00
2024-02-17T03:44:35.155Z,0.00
2024-02-17T03:45:35.475Z,0.00
2024-02-17T03:46:34.495Z,0.00
2024-02-17T03:47:34.465Z,0.00
2024-02-17T03:48:34.597Z,0.00
2024-02-17T03:49:34.647Z,0.00
2024-02-17T03:50:34.403Z,0.00
2024-02-17T03:51:34.465Z,0.00
2024-02-17T03:52:34.428Z,0.00
2024-02-17T03:53:34.365Z,0.00
2024-02-17T03:54:34.479Z,0.00
2024-02-17T03:55:34.362Z,0.00
2024-02-17T03:56:34.368Z,0.00
2024-02-17T03:57:34.392Z,0.00
2024-02-17T03:58:34.325Z,0.00
2024-02-17T03:59:34.377Z,0.00
2024-02-17T04:00:34.335Z,0.00
2024-02-17T04:01:34.644Z,0.00
2024-02-17T04:02:34.313Z,0.00
2024-02-17T04:03:34.287Z,0.00
2024-02-17T04:04:34.286Z,0.00
2024-02-17T04:05:34.453Z,0.00
2024-02-17T04:06:34.409Z,0.00
2024-02-17T04:07:34.467Z,0.00
2024-02-17T04:08:34.204Z,0.00
2024-02-17T04:09:34.339Z,0.00
2024-02-17T04:10:34.592Z,0.00
2024-02-17T04:11:34.204Z,0.00
2024-02-17T04:12:34.213Z,0.00
2024-02-17T04:13:34.196Z,0.00
2024-02-17T04:14:34.153Z,0.00
2024-02-17T04:15:34.140Z,0.00
2024-02-17T04:16:34.194Z,0.00
2024-02-17T04:17:34.116Z,0.00
2024-02-17T04:18:34.225Z,0.00
2024-02-17T04:19:34.243Z,0.00
2024-02-17T04:20:34.254Z,0.00
2024-02-17T04:21:34.429Z,0.00
2024-02-17T04:22:35.118Z,0.00
2024-02-17T04:23:34.293Z,0.00
2024-02-17T04:24:34.134Z,0.00
2024-02-17T04:25:34.938Z,0.00
2024-02-17T04:26:34.021Z,0.00
2024-02-17T04:27:34.163Z,0.00
2024-02-17T04:28:34.406Z,0.00
2024-02-17T04:29:33.966Z,0.00
2024-02-17T04:30:35.495Z,0.00
2024-02-17T04:31:33.955Z,0.00
2024-02-17T04:32:35.466Z,0.00
2024-02-17T04:33:34.107Z,0.00
2024-02-17T04:34:34.015Z,0.00
2024-02-17T04:35:34.230Z,0.00
2024-02-17T04:36:33.955Z,0.00
2024-02-17T04:37:33.910Z,0.00
2024-02-17T04:38:36.344Z,0.00
2024-02-17T04:39:33.908Z,0.00
2024-02-17T04:40:33.866Z,0.00
2024-02-17T04:41:33.849Z,0.00
2024-02-17T04:42:34.482Z,0.00
2024-02-17T04:43:33.857Z,0.00
2024-02-17T04:44:33.999Z,0.00
2024-02-17T04:45:33.835Z,0.00
2024-02-17T04:46:34.057Z,0.00
2024-02-17T04:47:33.807Z,0.00
2024-02-17T04:48:33.789Z,0.00
2024-02-17T04:49:33.795Z,0.00
2024-02-17T04:50:33.821Z,0.00
2024-02-17T04:51:35.776Z,0.00
2024-02-17T04:52:33.755Z,0.00
2024-02-17T04:53:33.728Z,0.00
2024-02-17T04:54:33.859Z,0.00
2024-02-17T04:55:35.261Z,0.00
2024-02-17T04:56:33.709Z,0.00
2024-02-17T04:57:33.787Z,0.00
2024-02-17T04:58:33.654Z,0.00
2024-02-17T04:59:33.651Z,0.00
2024-02-17T05:00:33.744Z,0.00
2024-02-17T05:01:33.745Z,0.00
2024-02-17T05:02:33.625Z,0.00
2024-02-17T05:03:33.787Z,0.00
2024-02-17T05:04:33.752Z,0.00
2024-02-17T05:05:33.648Z,0.00
2024-02-17T05:06:33.810Z,0.00
2024-02-17T05:07:33.548Z,0.00
2024-02-17T05:08:33.541Z,0.00
2024-02-17T05:09:33.602Z,0.00
2024-02-17T05:10:33.538Z,0.00
2024-02-17T05:11:33.550Z,0.00
2024-02-17T05:12:33.621Z,0.00
2024-02-17T05:13:33.611Z,0.00
2024-02-17T05:14:33.542Z,0.00
2024-02-17T05:15:33.503Z,0.00
2024-02-17T05:16:33.508Z,0.00
2024-02-17T05:17:33.491Z,0.00
2024-02-17T05:18:33.626Z,0.00
2024-02-17T05:19:33.485Z,0.00
2024-02-17T05:20:33.444Z,0.00
2024-02-17T05:21:33.422Z,0.00
2024-02-17T05:22:33.449Z,0.00
2024-02-17T05:23:33.385Z,0.00
2024-02-17T05:24:33.563Z,0.00
2024-02-17T05:25:33.384Z,0.00
2024-02-17T05:26:34.328Z,0.00
2024-02-17T05:27:33.443Z,0.00
2024-02-17T05:28:33.373Z,0.00
2024-02-17T05:29:33.380Z,0.00
2024-02-17T05:30:33.435Z,0.00
2024-02-17T05:31:33.285Z,0.00
2024-02-17T05:32:33.286Z,0.00
2024-02-17T05:33:33.387Z,0.00
2024-02-17T05:34:33.346Z,0.00
2024-02-17T05:35:33.280Z,0.00
2024-02-17T05:36:33.550Z,0.00
2024-02-17T05:37:33.235Z,0.00
2024-02-17T05:38:33.213Z,0.00
2024-02-17T05:39:34.697Z,0.00
2024-02-17T05:40:33.204Z,0.00
2024-02-17T05:41:33.179Z,0.00
2024-02-17T05:42:33.251Z,0.00
2024-02-17T05:43:33.468Z,0.00
2024-02-17T05:44:33.240Z,0.00
2024-02-17T05:45:33.246Z,0.00
2024-02-17T05:46:33.130Z,0.00
2024-02-17T05:47:33.192Z,0.00
2024-02-17T05:48:33.285Z,0.00
2024-02-17T05:49:33.169Z,0.00
2024-02-17T05:50:33.092Z,0.00
2024-02-17T05:51:33.158Z,0.00
2024-02-17T05:52:33.070Z,0.00
2024-02-17T05:53:33.065Z,0.00
2024-02-17T05:54:33.105Z,0.00
2024-02-17T05:55:33.039Z,0.00
2024-02-17T05:56:33.024Z,0.00
2024-02-17T05:57:33.076Z,0.00
2024-02-17T05:58:33.057Z,0.00
2024-02-17T05:59:32.993Z,0.00
2024-02-17T06:00:33.192Z,0.00
2024-02-17T06:01:33.567Z,0.00
2024-02-17T06:02:33.466Z,0.00
2024-02-17T06:03:33.070Z,0.00
2024-02-17T06:04:32.975Z,0.00
2024-02-17T06:05:32.930Z,0.00
2024-02-17T06:06:33.544Z,0.00
2024-02-17T06:07:33.023Z,0.00
2024-02-17T06:08:34.856Z,0.00
2024-02-17T06:09:32.914Z,0.00
2024-02-17T06:10:33.231Z,0.00
2024-02-17T06:11:33.080Z,0.00
2024-02-17T06:12:32.908Z,0.00
2024-02-17T06:13:32.872Z,0.00
2024-02-17T06:14:32.829Z,0.00
2024-02-17T06:15:32.963Z,0.00
2024-02-17T06:16:32.804Z,0.00
2024-02-17T06:17:32.840Z,0.00
2024-02-17T06:18:33.001Z,0.00
2024-02-17T06:19:35.627Z,0.00
2024-02-17T06:20:32.757Z,4.00
2024-02-17T06:21:32.830Z,4.00
2024-02-17T06:22:33.732Z,0.00
2024-02-17T06:23:32.726Z,0.00
2024-02-17T06:24:32.756Z,4.00
2024-02-17T06:25:32.712Z,4.00
2024-02-17T06:26:32.825Z,4.00
2024-02-17T06:27:32.729Z,8.00
2024-02-17T06:28:32.685Z,4.00
2024-02-17T06:29:32.689Z,4.00
2024-02-17T06:30:32.904Z,4.00
2024-02-17T06:31:34.863Z,8.00
2024-02-17T06:32:32.689Z,8.00
2024-02-17T06:33:33.054Z,12.00
2024-02-17T06:34:33.017Z,16.00
2024-02-17T06:35:32.600Z,16.00
2024-02-17T06:36:32.776Z,16.00
2024-02-17T06:37:32.580Z,20.00
2024-02-17T06:38:32.572Z,20.00
2024-02-17T06:39:32.589Z,20.00
2024-02-17T06:40:32.692Z,28.00
2024-02-17T06:41:32.553Z,32.00
2024-02-17T06:42:32.534Z,36.00
2024-02-17T06:43:32.528Z,40.00
2024-02-17T06:44:32.523Z,44.00
2024-02-17T06:45:32.548Z,44.00
2024-02-17T06:46:32.531Z,36.00
2024-02-17T06:47:32.495Z,48.00
2024-02-17T06:48:32.540Z,64.00
2024-02-17T06:49:32.511Z,64.00
2024-02-17T06:50:32.505Z,72.00
2024-02-17T06:51:32.500Z,64.00
2024-02-17T06:52:33.310Z,84.00
2024-02-17T06:53:32.409Z,80.00
2024-02-17T06:54:32.462Z,92.00
2024-02-17T06:55:32.366Z,108.00
2024-02-17T06:56:32.374Z,104.00
2024-02-17T06:57:33.381Z,96.00
2024-02-17T06:58:32.341Z,100.00
2024-02-17T06:59:32.373Z,80.00
2024-02-17T07:00:32.385Z,88.00
2024-02-17T07:01:33.358Z,76.00
2024-02-17T07:02:32.301Z,104.00
2024-02-17T07:03:32.469Z,84.00
2024-02-17T07:04:32.303Z,124.00
2024-02-17T07:05:32.350Z,180.00
2024-02-17T07:06:32.502Z,184.00
2024-02-17T07:07:32.250Z,184.00
2024-02-17T07:08:32.249Z,176.00
2024-02-17T07:09:32.250Z,164.00
2024-02-17T07:10:32.264Z,164.00
2024-02-17T07:11:32.288Z,148.00
2024-02-17T07:12:32.223Z,168.00
2024-02-17T07:13:32.184Z,156.00
2024-02-17T07:14:33.533Z,184.00
2024-02-17T07:15:32.193Z,212.00
2024-02-17T07:16:32.178Z,288.00
2024-02-17T07:17:32.166Z,252.00
2024-02-17T07:18:32.302Z,216.00
2024-02-17T07:19:32.149Z,256.00
2024-02-17T07:20:33.100Z,176.00
2024-02-17T07:21:32.102Z,180.00
2024-02-17T07:22:32.081Z,232.00
2024-02-17T07:23:33.241Z,296.00
2024-02-17T07:24:32.162Z,252.00
2024-02-17T07:25:32.077Z,288.00
2024-02-17T07:26:32.053Z,304.00
2024-02-17T07:27:32.076Z,288.00
2024-02-17T07:28:33.758Z,276.00
2024-02-17T07:29:32.102Z,276.00
2024-02-17T07:30:32.073Z,248.00
2024-02-17T07:31:31.980Z,264.00
2024-02-17T07:32:32.173Z,276.00
2024-02-17T07:33:32.215Z,280.00
2024-02-17T07:34:32.026Z,316.00
2024-02-17T07:35:31.943Z,316.00
2024-02-17T07:36:32.004Z,284.00
2024-02-17T07:37:31.930Z,268.00
2024-02-17T07:38:31.910Z,284.00
2024-02-17T07:39:31.950Z,292.00
2024-02-17T07:40:31.876Z,388.00
2024-02-17T07:41:31.993Z,288.00
2024-02-17T07:42:31.942Z,232.00
2024-02-17T07:43:31.865Z,292.00
2024-02-17T07:44:32.002Z,276.00
2024-02-17T07:45:32.032Z,276.00
2024-02-17T07:46:32.011Z,340.00
2024-02-17T07:47:31.835Z,368.00
2024-02-17T07:48:32.079Z,360.00
2024-02-17T07:49:33.849Z,388.00
2024-02-17T07:50:31.888Z,424.00
2024-02-17T07:51:31.773Z,356.00
2024-02-17T07:52:31.757Z,312.00
2024-02-17T07:53:31.892Z,436.00
2024-02-17T07:54:31.748Z,504.00
2024-02-17T07:55:31.927Z,396.00
2024-02-17T07:56:33.512Z,452.00
2024-02-17T07:57:31.759Z,480.00
2024-02-17T07:58:31.670Z,544.00
2024-02-17T07:59:31.714Z,524.00
2024-02-17T08:00:31.858Z,580.00
2024-02-17T08:01:31.977Z,688.00
2024-02-17T08:02:31.720Z,648.00
2024-02-17T08:03:31.659Z,384.00
2024-02-17T08:04:33.569Z,448.00
2024-02-17T08:05:31.757Z,396.00
2024-02-17T08:06:32.681Z,380.00
2024-02-17T08:07:32.764Z,380.00
2024-02-17T08:08:31.604Z,392.00
2024-02-17T08:09:31.597Z,448.00
2024-02-17T08:10:32.777Z,372.00
2024-02-17T08:11:31.628Z,412.00
2024-02-17T08:12:31.542Z,384.00
2024-02-17T08:13:32.051Z,360.00
2024-02-17T08:14:41.730Z,380.00
2024-02-17T08:15:31.537Z,428.00
2024-02-17T08:16:31.495Z,428.00
2024-02-17T08:17:32.342Z,468.00
2024-02-17T08:18:31.603Z,520.00
2024-02-17T08:19:31.618Z,508.00
2024-02-17T08:20:31.520Z,552.00
2024-02-17T08:21:33.216Z,512.00
2024-02-17T08:22:33.242Z,500.00
2024-02-17T08:23:33.247Z,544.00
2024-02-17T08:24:33.407Z,468.00
2024-02-17T08:25:31.488Z,404.00
2024-02-17T08:26:32.342Z,472.00
2024-02-17T08:27:31.444Z,516.00
2024-02-17T08:28:32.486Z,548.00
2024-02-17T08:29:31.373Z,584.00
2024-02-17T08:30:31.472Z,492.00
2024-02-17T08:31:32.164Z,472.00
2024-02-17T08:32:31.447Z,476.00
2024-02-17T08:33:31.503Z,468.00
2024-02-17T08:34:32.297Z,456.00
2024-02-17T08:35:31.324Z,428.00
2024-02-17T08:36:31.313Z,460.00
2024-02-17T08:37:31.251Z,428.00
2024-02-17T08:38:31.244Z,536.00
2024-02-17T08:39:31.378Z,524.00
2024-02-17T08:40:31.332Z,456.00
2024-02-17T08:41:31.208Z,460.00
2024-02-17T08:42:31.247Z,428.00
2024-02-17T08:43:31.429Z,392.00
2024-02-17T08:44:31.230Z,364.00
2024-02-17T08:45:31.220Z,424.00
2024-02-17T08:46:31.152Z,484.00
2024-02-17T08:47:31.228Z,436.00
2024-02-17T08:48:31.366Z,472.00
2024-02-17T08:49:31.365Z,568.00
2024-02-17T08:50:31.096Z,644.00
2024-02-17T08:51:31.172Z,636.00
2024-02-17T08:52:31.086Z,536.00
2024-02-17T08:53:31.216Z,448.00
2024-02-17T08:54:31.279Z,404.00
2024-02-17T08:55:31.153Z,344.00
2024-02-17T08:56:31.049Z,312.00
2024-02-17T08:57:31.096Z,320.00
2024-02-17T08:58:31.251Z,332.00
2024-02-17T08:59:31.054Z,332.00
2024-02-17T09:00:31.109Z,340.00
2024-02-17T09:01:31.066Z,352.00
2024-02-17T09:02:30.969Z,424.00
2024-02-17T09:03:31.132Z,480.00
2024-02-17T09:04:30.949Z,484.00
2024-02-17T09:05:31.093Z,464.00
2024-02-17T09:06:31.178Z,456.00
2024-02-17T09:07:30.962Z,496.00
2024-02-17T09:08:31.336Z,528.00
2024-02-17T09:09:30.945Z,504.00
2024-02-17T09:10:30.926Z,404.00
2024-02-17T09:11:30.871Z,356.00
2024-02-17T09:12:30.867Z,336.00
2024-02-17T09:13:31.769Z,352.00
2024-02-17T09:14:30.881Z,372.00
2024-02-17T09:15:30.924Z,432.00
2024-02-17T09:16:30.842Z,436.00
2024-02-17T09:17:30.860Z,424.00
2024-02-17T09:18:30.951Z,488.00
2024-02-17T09:19:30.851Z,488.00
2024-02-17T09:20:30.859Z,472.00
2024-02-17T09:21:30.775Z,496.00
2024-02-17T09:22:30.747Z,484.00
2024-02-17T09:23:30.776Z,524.00
2024-02-17T09:24:30.776Z,548.00
2024-02-17T09:25:31.592Z,612.00
2024-02-17T09:26:30.716Z,628.00
2024-02-17T09:27:30.746Z,620.00
2024-02-17T09:28:32.400Z,720.00
2024-02-17T09:29:30.678Z,640.00
2024-02-17T09:30:30.708Z,672.00
2024-02-17T09:31:32.838Z,668.00
2024-02-17T09:32:30.637Z,668.00
2024-02-17T09:33:30.754Z,776.00
2024-02-17T09:34:30.865Z,844.00
2024-02-17T09:35:30.632Z,760.00
2024-02-17T09:36:30.628Z,752.00
2024-02-17T09:37:30.660Z,668.00
2024-02-17T09:38:30.608Z,732.00
2024-02-17T09:39:30.732Z,800.00
2024-02-17T09:40:30.765Z,844.00
2024-02-17T09:41:30.583Z,816.00
2024-02-17T09:42:31.925Z,728.00
2024-02-17T09:43:30.573Z,764.00
2024-02-17T09:44:30.531Z,800.00
2024-02-17T09:45:30.571Z,780.00
2024-02-17T09:46:30.533Z,808.00
2024-02-17T09:47:31.467Z,732.00
2024-02-17T09:48:30.855Z,808.00
2024-02-17T09:49:30.562Z,988.00
2024-02-17T09:50:30.461Z,980.00
2024-02-17T09:51:30.639Z,960.00
2024-02-17T09:52:30.445Z,872.00
2024-02-17T09:53:30.587Z,856.00
2024-02-17T09:54:30.502Z,808.00
2024-02-17T09:55:30.444Z,756.00
2024-02-17T09:56:30.402Z,796.00
2024-02-17T09:57:38.091Z,796.00
2024-02-17T09:58:31.426Z,744.00
2024-02-17T09:59:30.387Z,824.00
2024-02-17T10:00:30.420Z,848.00
2024-02-17T10:01:30.384Z,960.00
2024-02-17T10:02:30.799Z,1020.00
2024-02-17T10:03:31.559Z,1116.00
2024-02-17T10:04:31.059Z,1764.00
2024-02-17T10:05:30.513Z,1848.00
2024-02-17T10:06:30.418Z,1756.00
2024-02-17T10:07:30.658Z,1552.00
2024-02-17T10:08:30.291Z,1440.00
2024-02-17T10:09:31.628Z,1288.00
2024-02-17T10:10:30.315Z,1144.00
2024-02-17T10:11:30.413Z,1188.00
2024-02-17T10:12:30.722Z,1092.00
2024-02-17T10:13:30.643Z,1064.00
2024-02-17T10:14:31.197Z,1064.00
2024-02-17T10:15:30.426Z,1276.00
2024-02-17T10:16:30.338Z,1392.00
2024-02-17T10:17:30.218Z,1452.00
2024-02-17T10:18:30.428Z,1188.00
2024-02-17T10:19:30.363Z,1000.00
2024-02-17T10:20:30.244Z,992.00
2024-02-17T10:21:30.173Z,796.00
2024-02-17T10:22:30.091Z,800.00
2024-02-17T10:23:30.151Z,936.00
2024-02-17T10:24:30.586Z,916.00
2024-02-17T10:25:30.306Z,920.00
2024-02-17T10:26:30.208Z,1020.00
2024-02-17T10:27:30.487Z,936.00
2024-02-17T10:28:30.605Z,864.00
2024-02-17T10:29:30.216Z,872.00
2024-02-17T10:30:30.317Z,936.00
2024-02-17T10:31:29.996Z,1052.00
2024-02-17T10:32:30.082Z,1048.00
2024-02-17T10:33:30.331Z,1072.00
2024-02-17T10:34:30.303Z,1064.00
2024-02-17T10:35:30.124Z,1100.00
2024-02-17T10:36:30.124Z,988.00
2024-02-17T10:37:29.934Z,884.00
2024-02-17T10:38:29.916Z,816.00
2024-02-17T10:39:30.580Z,752.00
2024-02-17T10:40:30.263Z,748.00
2024-02-17T10:41:30.199Z,796.00
2024-02-17T10:42:29.874Z,856.00
2024-02-17T10:43:29.969Z,844.00
2024-02-17T10:44:29.968Z,788.00
2024-02-17T10:45:30.492Z,736.00
2024-02-17T10:46:30.092Z,660.00
2024-02-17T10:47:29.907Z,632.00
2024-02-17T10:48:30.051Z,644.00
2024-02-17T10:49:30.005Z,672.00
2024-02-17T10:50:29.867Z,660.00
2024-02-17T10:51:29.791Z,660.00
2024-02-17T10:52:29.771Z,692.00
2024-02-17T10:53:29.763Z,708.00
2024-02-17T10:54:29.779Z,648.00
2024-02-17T10:55:29.723Z,552.00
2024-02-17T10:56:29.739Z,492.00
2024-02-17T10:57:29.766Z,460.00
2024-02-17T10:58:29.702Z,536.00
2024-02-17T10:59:29.716Z,700.00
2024-02-17T11:00:29.917Z,760.00
2024-02-17T11:01:29.846Z,692.00
2024-02-17T11:02:29.672Z,720.00
2024-02-17T11:03:29.871Z,740.00
2024-02-17T11:04:29.680Z,748.00
2024-02-17T11:05:29.745Z,724.00
2024-02-17T11:06:29.860Z,752.00
2024-02-17T11:07:29.702Z,780.00
2024-02-17T11:08:29.677Z,868.00
2024-02-17T11:09:29.665Z,1120.00
2024-02-17T11:10:29.901Z,1664.00
2024-02-17T11:11:29.733Z,2060.00
2024-02-17T11:12:29.907Z,2060.00
2024-02-17T11:13:29.745Z,2204.00
2024-02-17T11:14:29.562Z,2420.00
2024-02-17T11:15:31.991Z,2408.00
2024-02-17T11:16:29.505Z,2368.00
2024-02-17T11:17:29.768Z,2296.00
2024-02-17T11:18:29.855Z,2156.00
2024-02-17T11:19:38.371Z,1860.00
2024-02-17T11:20:30.708Z,1584.00
2024-02-17T11:21:31.362Z,1748.00
2024-02-17T11:22:29.546Z,2036.00
2024-02-17T11:23:29.624Z,2016.00
2024-02-17T11:24:29.643Z,1692.00
2024-02-17T11:25:29.422Z,1460.00
2024-02-17T11:26:36.972Z,1388.00
2024-02-17T11:27:31.431Z,1260.00
2024-02-17T11:28:29.388Z,1148.00
2024-02-17T11:29:29.554Z,1024.00
2024-02-17T11:30:29.460Z,1108.00
2024-02-17T11:31:29.328Z,1172.00
2024-02-17T11:32:29.323Z,1000.00
2024-02-17T11:33:32.164Z,912.00
2024-02-17T11:34:30.487Z,936.00
2024-02-17T11:35:29.739Z,1120.00
2024-02-17T11:36:29.493Z,1432.00
2024-02-17T11:37:29.306Z,1564.00
2024-02-17T11:38:29.467Z,1408.00
2024-02-17T11:39:29.294Z,1256.00
2024-02-17T11:40:29.265Z,1236.00
2024-02-17T11:41:29.228Z,1252.00
2024-02-17T11:42:29.273Z,1188.00
2024-02-17T11:43:29.233Z,1324.00
2024-02-17T11:44:29.379Z,1476.00
2024-02-17T11:45:29.301Z,1656.00
2024-02-17T11:46:29.189Z,1840.00
2024-02-17T11:47:29.299Z,1904.00
2024-02-17T11:48:29.482Z,1720.00
2024-02-17T11:49:29.505Z,1504.00
2024-02-17T11:50:29.149Z,1476.00
2024-02-17T11:51:30.244Z,1424.00
2024-02-17T11:52:29.249Z,1512.00
2024-02-17T11:53:30.289Z,1780.00
2024-02-17T11:54:30.408Z,1840.00
2024-02-17T11:55:30.356Z,2060.00
2024-02-17T11:56:29.393Z,2244.00
2024-02-17T11:57:30.517Z,2368.00
2024-02-17T11:58:30.490Z,2404.00
2024-02-17T11:59:29.839Z,2788.00
2024-02-17T12:00:29.061Z,2940.00
2024-02-17T12:01:30.547Z,2912.00
2024-02-17T12:02:29.211Z,2848.00
2024-02-17T12:03:30.676Z,2968.00
2024-02-17T12:04:30.728Z,3064.00
2024-02-17T12:05:29.052Z,2944.00
2024-02-17T12:06:30.788Z,2548.00
2024-02-17T12:07:29.928Z,2456.00
2024-02-17T12:08:29.311Z,2852.00
2024-02-17T12:09:28.972Z,3320.00
2024-02-17T12:10:28.936Z,3540.00
2024-02-17T12:11:28.952Z,3544.00
2024-02-17T12:12:28.905Z,3356.00
2024-02-17T12:13:28.885Z,3284.00
2024-02-17T12:14:28.885Z,3640.00
2024-02-17T12:15:29.221Z,3700.00
2024-02-17T12:16:28.878Z,3932.00
2024-02-17T12:17:28.913Z,4244.00
2024-02-17T12:18:28.982Z,4192.00
2024-02-17T12:19:29.066Z,3776.00
2024-02-17T12:20:28.782Z,3844.00
2024-02-17T12:21:28.828Z,3768.00
2024-02-17T12:22:28.818Z,3656.00
2024-02-17T12:23:28.751Z,3288.00
2024-02-17T12:24:28.997Z,3064.00
2024-02-17T12:25:28.751Z,2740.00
2024-02-17T12:26:41.395Z,2380.00
2024-02-17T12:27:29.717Z,2380.00
2024-02-17T12:28:28.752Z,2448.00
2024-02-17T12:29:28.918Z,2260.00
2024-02-17T12:30:29.008Z,2248.00
2024-02-17T12:31:28.769Z,2160.00
2024-02-17T12:32:28.945Z,2464.00
2024-02-17T12:33:28.872Z,2540.00
2024-02-17T12:34:28.923Z,2420.00
2024-02-17T12:35:28.730Z,2236.00
2024-02-17T12:36:28.728Z,2060.00
2024-02-17T12:37:28.620Z,1976.00
2024-02-17T12:38:28.620Z,1920.00
2024-02-17T12:39:28.634Z,1764.00
2024-02-17T12:40:28.826Z,1664.00
2024-02-17T12:41:28.553Z,1612.00
2024-02-17T12:42:28.876Z,1724.00
2024-02-17T12:43:34.645Z,1764.00
2024-02-17T12:44:29.584Z,1476.00
2024-02-17T12:45:28.559Z,1384.00
2024-02-17T12:46:28.882Z,1456.00
2024-02-17T12:47:28.874Z,1316.00
2024-02-17T12:48:28.570Z,1160.00
2024-02-17T12:49:30.028Z,924.00
2024-02-17T12:50:29.290Z,784.00